sensor_id;sensor_type;location;lat;lon;timestamp;P1;durP1;ratioP1;P2;durP2;ratioP2
6693;SDS011;3384;42.628;23.380;2022-10-13T00:00:47;3.77;;;3.57;;
6693;SDS011;3384;42.628;23.380;2022-10-13T00:03:14;4.77;;;4.20;;
6693;SDS011;3384;42.628;23.380;2022-10-13T00:05:41;4.20;;;3.90;;
6693;SDS011;3384;42.628;23.380;2022-10-13T00:08:09;3.80;;;3.60;;
6693;SDS011;3384;42.628;23.380;2022-10-13T00:10:38;2.83;;;2.73;;
6693;SDS011;3384;42.628;23.380;2022-10-13T00:13:06;4.33;;;4.03;;
6693;SDS011;3384;42.628;23.380;2022-10-13T00:15:36;3.97;;;3.67;;
6693;SDS011;3384;42.628;23.380;2022-10-13T00:18:04;7.50;;;3.40;;
6693;SDS011;3384;42.628;23.380;2022-10-13T00:20:31;4.00;;;3.53;;
6693;SDS011;3384;42.628;23.380;2022-10-13T00:22:58;4.47;;;4.17;;
6693;SDS011;3384;42.628;23.380;2022-10-13T00:25:25;3.50;;;3.40;;
6693;SDS011;3384;42.628;23.380;2022-10-13T00:27:53;5.43;;;3.13;;
6693;SDS011;3384;42.628;23.380;2022-10-13T00:30:20;3.63;;;3.43;;
6693;SDS011;3384;42.628;23.380;2022-10-13T00:32:47;3.10;;;3.00;;
6693;SDS011;3384;42.628;23.380;2022-10-13T00:35:13;4.33;;;4.13;;
6693;SDS011;3384;42.628;23.380;2022-10-13T00:37:40;3.90;;;3.70;;
6693;SDS011;3384;42.628;23.380;2022-10-13T00:40:07;3.93;;;3.77;;
6693;SDS011;3384;42.628;23.380;2022-10-13T00:42:35;3.97;;;3.87;;
6693;SDS011;3384;42.628;23.380;2022-10-13T00:45:10;5.60;;;5.20;;
6693;SDS011;3384;42.628;23.380;2022-10-13T00:47:52;4.97;;;4.70;;
6693;SDS011;3384;42.628;23.380;2022-10-13T00:50:22;4.90;;;4.50;;
6693;SDS011;3384;42.628;23.380;2022-10-13T00:52:52;5.20;;;4.83;;
6693;SDS011;3384;42.628;23.380;2022-10-13T00:55:21;5.10;;;4.77;;
6693;SDS011;3384;42.628;23.380;2022-10-13T00:57:51;4.70;;;4.40;;
6693;SDS011;3384;42.628;23.380;2022-10-13T01:00:22;6.73;;;5.90;;
6693;SDS011;3384;42.628;23.380;2022-10-13T01:02:49;6.20;;;5.80;;
6693;SDS011;3384;42.628;23.380;2022-10-13T01:05:16;5.03;;;4.80;;
6693;SDS011;3384;42.628;23.380;2022-10-13T01:07:44;6.10;;;5.60;;
6693;SDS011;3384;42.628;23.380;2022-10-13T01:10:13;5.60;;;5.30;;
6693;SDS011;3384;42.628;23.380;2022-10-13T01:12:49;7.00;;;5.57;;
6693;SDS011;3384;42.628;23.380;2022-10-13T01:15:26;5.03;;;4.73;;
6693;SDS011;3384;42.628;23.380;2022-10-13T01:18:01;6.00;;;5.53;;
6693;SDS011;3384;42.628;23.380;2022-10-13T01:29:39;5.23;;;5.03;;
6693;SDS011;3384;42.628;23.380;2022-10-13T01:32:22;6.53;;;5.93;;
6693;SDS011;3384;42.628;23.380;2022-10-13T01:34:57;8.63;;;6.67;;
6693;SDS011;3384;42.628;23.380;2022-10-13T01:37:28;7.30;;;6.60;;
6693;SDS011;3384;42.628;23.380;2022-10-13T01:40:00;7.23;;;6.57;;
6693;SDS011;3384;42.628;23.380;2022-10-13T01:42:34;6.53;;;5.93;;
6693;SDS011;3384;42.628;23.380;2022-10-13T01:45:07;7.13;;;6.73;;
6693;SDS011;3384;42.628;23.380;2022-10-13T01:47:36;7.27;;;6.63;;
6693;SDS011;3384;42.628;23.380;2022-10-13T01:50:05;7.90;;;7.10;;
6693;SDS011;3384;42.628;23.380;2022-10-13T01:52:34;7.00;;;6.50;;
6693;SDS011;3384;42.628;23.380;2022-10-13T01:55:04;8.10;;;7.40;;
6693;SDS011;3384;42.628;23.380;2022-10-13T01:57:33;7.90;;;7.20;;
6693;SDS011;3384;42.628;23.380;2022-10-13T02:00:03;7.37;;;6.80;;
6693;SDS011;3384;42.628;23.380;2022-10-13T02:02:36;7.97;;;7.37;;
6693;SDS011;3384;42.628;23.380;2022-10-13T02:05:11;7.80;;;7.20;;
6693;SDS011;3384;42.628;23.380;2022-10-13T02:07:43;9.00;;;7.90;;
6693;SDS011;3384;42.628;23.380;2022-10-13T02:10:16;9.17;;;8.27;;
6693;SDS011;3384;42.628;23.380;2022-10-13T02:12:48;8.27;;;7.57;;
6693;SDS011;3384;42.628;23.380;2022-10-13T02:15:18;7.97;;;7.37;;
6693;SDS011;3384;42.628;23.380;2022-10-13T02:17:49;7.23;;;6.73;;
6693;SDS011;3384;42.628;23.380;2022-10-13T02:20:18;8.50;;;7.67;;
6693;SDS011;3384;42.628;23.380;2022-10-13T02:22:46;7.20;;;6.60;;
6693;SDS011;3384;42.628;23.380;2022-10-13T02:25:32;7.93;;;7.20;;
6693;SDS011;3384;42.628;23.380;2022-10-13T02:27:59;7.90;;;7.20;;
6693;SDS011;3384;42.628;23.380;2022-10-13T02:30:27;6.93;;;6.50;;
6693;SDS011;3384;42.628;23.380;2022-10-13T02:32:57;7.83;;;7.20;;
6693;SDS011;3384;42.628;23.380;2022-10-13T02:35:24;9.40;;;8.47;;
6693;SDS011;3384;42.628;23.380;2022-10-13T02:37:51;10.00;;;8.83;;
6693;SDS011;3384;42.628;23.380;2022-10-13T02:40:18;8.90;;;8.20;;
6693;SDS011;3384;42.628;23.380;2022-10-13T02:42:45;11.13;;;8.77;;
6693;SDS011;3384;42.628;23.380;2022-10-13T02:45:11;9.87;;;7.67;;
6693;SDS011;3384;42.628;23.380;2022-10-13T02:47:39;12.20;;;8.80;;
6693;SDS011;3384;42.628;23.380;2022-10-13T02:50:07;14.37;;;8.60;;
6693;SDS011;3384;42.628;23.380;2022-10-13T02:52:34;9.50;;;8.70;;
6693;SDS011;3384;42.628;23.380;2022-10-13T02:55:01;12.60;;;8.60;;
6693;SDS011;3384;42.628;23.380;2022-10-13T02:57:29;9.43;;;8.53;;
6693;SDS011;3384;42.628;23.380;2022-10-13T02:59:56;9.80;;;8.90;;
6693;SDS011;3384;42.628;23.380;2022-10-13T03:02:22;11.17;;;9.23;;
6693;SDS011;3384;42.628;23.380;2022-10-13T03:04:51;11.93;;;10.10;;
6693;SDS011;3384;42.628;23.380;2022-10-13T03:07:19;10.07;;;9.17;;
6693;SDS011;3384;42.628;23.380;2022-10-13T03:09:46;10.70;;;9.60;;
6693;SDS011;3384;42.628;23.380;2022-10-13T03:12:13;11.73;;;9.43;;
6693;SDS011;3384;42.628;23.380;2022-10-13T03:14:40;13.20;;;8.73;;
6693;SDS011;3384;42.628;23.380;2022-10-13T03:17:07;10.13;;;9.23;;
6693;SDS011;3384;42.628;23.380;2022-10-13T03:19:34;10.53;;;9.63;;
6693;SDS011;3384;42.628;23.380;2022-10-13T03:22:00;13.63;;;9.43;;
6693;SDS011;3384;42.628;23.380;2022-10-13T03:24:29;10.90;;;9.80;;
6693;SDS011;3384;42.628;23.380;2022-10-13T03:26:56;11.27;;;9.93;;
6693;SDS011;3384;42.628;23.380;2022-10-13T03:29:23;11.13;;;9.93;;
6693;SDS011;3384;42.628;23.380;2022-10-13T03:31:49;14.97;;;10.73;;
6693;SDS011;3384;42.628;23.380;2022-10-13T03:34:16;13.20;;;11.97;;
6693;SDS011;3384;42.628;23.380;2022-10-13T03:36:44;11.07;;;9.93;;
6693;SDS011;3384;42.628;23.380;2022-10-13T03:39:11;11.90;;;10.17;;
6693;SDS011;3384;42.628;23.380;2022-10-13T03:41:39;12.70;;;10.67;;
6693;SDS011;3384;42.628;23.380;2022-10-13T03:44:07;10.50;;;9.50;;
6693;SDS011;3384;42.628;23.380;2022-10-13T03:46:36;11.83;;;10.77;;
6693;SDS011;3384;42.628;23.380;2022-10-13T03:49:03;11.13;;;10.10;;
6693;SDS011;3384;42.628;23.380;2022-10-13T03:51:29;11.40;;;10.30;;
6693;SDS011;3384;42.628;23.380;2022-10-13T03:53:56;12.00;;;9.50;;
6693;SDS011;3384;42.628;23.380;2022-10-13T03:56:24;13.90;;;9.23;;
6693;SDS011;3384;42.628;23.380;2022-10-13T03:58:55;12.70;;;10.90;;
6693;SDS011;3384;42.628;23.380;2022-10-13T04:01:24;11.97;;;10.77;;
6693;SDS011;3384;42.628;23.380;2022-10-13T04:03:52;16.27;;;10.50;;
6693;SDS011;3384;42.628;23.380;2022-10-13T04:06:20;17.47;;;10.27;;
6693;SDS011;3384;42.628;23.380;2022-10-13T04:08:47;14.40;;;9.97;;
6693;SDS011;3384;42.628;23.380;2022-10-13T04:11:14;11.17;;;10.07;;
6693;SDS011;3384;42.628;23.380;2022-10-13T04:13:41;10.27;;;9.27;;
6693;SDS011;3384;42.628;23.380;2022-10-13T04:16:12;11.93;;;10.67;;
6693;SDS011;3384;42.628;23.380;2022-10-13T04:18:41;14.70;;;9.63;;
6693;SDS011;3384;42.628;23.380;2022-10-13T04:21:08;13.17;;;9.87;;
6693;SDS011;3384;42.628;23.380;2022-10-13T04:23:36;16.97;;;11.50;;
6693;SDS011;3384;42.628;23.380;2022-10-13T04:26:03;13.93;;;12.33;;
6693;SDS011;3384;42.628;23.380;2022-10-13T04:28:31;20.00;;;12.43;;
6693;SDS011;3384;42.628;23.380;2022-10-13T04:30:59;13.17;;;11.40;;
6693;SDS011;3384;42.628;23.380;2022-10-13T04:33:28;18.33;;;11.37;;
6693;SDS011;3384;42.628;23.380;2022-10-13T04:35:55;14.67;;;12.90;;
6693;SDS011;3384;42.628;23.380;2022-10-13T04:38:22;20.13;;;11.03;;
6693;SDS011;3384;42.628;23.380;2022-10-13T04:40:49;15.60;;;10.40;;
6693;SDS011;3384;42.628;23.380;2022-10-13T04:43:16;16.93;;;9.43;;
6693;SDS011;3384;42.628;23.380;2022-10-13T04:45:42;11.70;;;10.50;;
6693;SDS011;3384;42.628;23.380;2022-10-13T04:48:10;17.60;;;11.43;;
6693;SDS011;3384;42.628;23.380;2022-10-13T04:50:38;12.20;;;10.93;;
6693;SDS011;3384;42.628;23.380;2022-10-13T04:53:05;12.70;;;10.20;;
6693;SDS011;3384;42.628;23.380;2022-10-13T04:55:33;13.03;;;11.20;;
6693;SDS011;3384;42.628;23.380;2022-10-13T04:58:00;48.10;;;25.10;;
6693;SDS011;3384;42.628;23.380;2022-10-13T05:00:27;16.10;;;12.70;;
6693;SDS011;3384;42.628;23.380;2022-10-13T05:02:54;49.00;;;24.40;;
6693;SDS011;3384;42.628;23.380;2022-10-13T05:05:21;14.17;;;10.47;;
6693;SDS011;3384;42.628;23.380;2022-10-13T05:07:49;12.50;;;11.20;;
6693;SDS011;3384;42.628;23.380;2022-10-13T05:10:16;43.13;;;21.83;;
6693;SDS011;3384;42.628;23.380;2022-10-13T05:12:43;19.40;;;11.77;;
6693;SDS011;3384;42.628;23.380;2022-10-13T05:15:10;27.63;;;18.50;;
6693;SDS011;3384;42.628;23.380;2022-10-13T05:17:36;24.30;;;17.80;;
6693;SDS011;3384;42.628;23.380;2022-10-13T05:20:03;30.80;;;18.00;;
6693;SDS011;3384;42.628;23.380;2022-10-13T05:22:30;37.73;;;19.50;;
6693;SDS011;3384;42.628;23.380;2022-10-13T05:24:59;34.07;;;19.90;;
6693;SDS011;3384;42.628;23.380;2022-10-13T05:27:25;44.90;;;23.87;;
6693;SDS011;3384;42.628;23.380;2022-10-13T05:29:52;67.57;;;34.30;;
6693;SDS011;3384;42.628;23.380;2022-10-13T05:32:19;53.03;;;28.77;;
6693;SDS011;3384;42.628;23.380;2022-10-13T05:34:46;47.80;;;30.17;;
6693;SDS011;3384;42.628;23.380;2022-10-13T05:37:13;44.13;;;26.60;;
6693;SDS011;3384;42.628;23.380;2022-10-13T05:39:42;46.43;;;25.07;;
6693;SDS011;3384;42.628;23.380;2022-10-13T05:42:10;36.00;;;24.00;;
6693;SDS011;3384;42.628;23.380;2022-10-13T05:44:37;42.50;;;23.73;;
6693;SDS011;3384;42.628;23.380;2022-10-13T05:47:04;51.47;;;27.37;;
6693;SDS011;3384;42.628;23.380;2022-10-13T05:49:31;40.73;;;24.60;;
6693;SDS011;3384;42.628;23.380;2022-10-13T05:52:01;49.33;;;24.90;;
6693;SDS011;3384;42.628;23.380;2022-10-13T05:54:32;62.90;;;25.80;;
6693;SDS011;3384;42.628;23.380;2022-10-13T05:57:02;73.93;;;25.87;;
6693;SDS011;3384;42.628;23.380;2022-10-13T05:59:34;61.47;;;26.37;;
6693;SDS011;3384;42.628;23.380;2022-10-13T06:02:04;46.33;;;26.30;;
6693;SDS011;3384;42.628;23.380;2022-10-13T06:04:34;48.97;;;22.17;;
6693;SDS011;3384;42.628;23.380;2022-10-13T06:07:04;43.47;;;22.40;;
6693;SDS011;3384;42.628;23.380;2022-10-13T06:09:32;40.70;;;22.70;;
6693;SDS011;3384;42.628;23.380;2022-10-13T06:12:02;44.63;;;22.67;;
6693;SDS011;3384;42.628;23.380;2022-10-13T06:14:29;58.13;;;23.73;;
6693;SDS011;3384;42.628;23.380;2022-10-13T06:16:57;33.63;;;20.20;;
6693;SDS011;3384;42.628;23.380;2022-10-13T06:19:24;47.80;;;21.40;;
6693;SDS011;3384;42.628;23.380;2022-10-13T06:21:51;40.43;;;22.70;;
6693;SDS011;3384;42.628;23.380;2022-10-13T06:24:18;41.07;;;19.83;;
6693;SDS011;3384;42.628;23.380;2022-10-13T06:26:44;44.77;;;20.33;;
6693;SDS011;3384;42.628;23.380;2022-10-13T06:29:11;35.67;;;19.63;;
6693;SDS011;3384;42.628;23.380;2022-10-13T06:31:38;29.73;;;17.40;;
6693;SDS011;3384;42.628;23.380;2022-10-13T06:34:06;30.70;;;19.70;;
6693;SDS011;3384;42.628;23.380;2022-10-13T06:36:33;37.80;;;21.23;;
6693;SDS011;3384;42.628;23.380;2022-10-13T06:39:00;41.13;;;20.40;;
6693;SDS011;3384;42.628;23.380;2022-10-13T06:41:27;38.23;;;19.77;;
6693;SDS011;3384;42.628;23.380;2022-10-13T06:43:54;33.47;;;19.37;;
6693;SDS011;3384;42.628;23.380;2022-10-13T06:46:21;40.43;;;21.60;;
6693;SDS011;3384;42.628;23.380;2022-10-13T06:48:48;48.47;;;18.73;;
6693;SDS011;3384;42.628;23.380;2022-10-13T06:51:17;31.57;;;18.60;;
6693;SDS011;3384;42.628;23.380;2022-10-13T06:53:44;25.87;;;18.13;;
6693;SDS011;3384;42.628;23.380;2022-10-13T06:56:11;32.73;;;18.70;;
6693;SDS011;3384;42.628;23.380;2022-10-13T06:58:38;28.33;;;17.60;;
6693;SDS011;3384;42.628;23.380;2022-10-13T07:01:05;31.50;;;17.23;;
6693;SDS011;3384;42.628;23.380;2022-10-13T07:03:32;22.90;;;14.63;;
6693;SDS011;3384;42.628;23.380;2022-10-13T07:05:59;22.53;;;13.23;;
6693;SDS011;3384;42.628;23.380;2022-10-13T07:08:28;17.90;;;13.47;;
6693;SDS011;3384;42.628;23.380;2022-10-13T07:10:55;14.47;;;11.97;;
6693;SDS011;3384;42.628;23.380;2022-10-13T07:13:22;16.20;;;12.27;;
6693;SDS011;3384;42.628;23.380;2022-10-13T07:15:48;20.63;;;14.00;;
6693;SDS011;3384;42.628;23.380;2022-10-13T07:18:18;20.30;;;14.60;;
6693;SDS011;3384;42.628;23.380;2022-10-13T07:20:45;19.93;;;14.00;;
6693;SDS011;3384;42.628;23.380;2022-10-13T07:23:12;18.70;;;13.27;;
6693;SDS011;3384;42.628;23.380;2022-10-13T07:25:40;29.40;;;16.33;;
6693;SDS011;3384;42.628;23.380;2022-10-13T07:28:07;35.73;;;17.93;;
6693;SDS011;3384;42.628;23.380;2022-10-13T07:30:34;53.27;;;29.90;;
6693;SDS011;3384;42.628;23.380;2022-10-13T07:33:00;34.73;;;20.50;;
6693;SDS011;3384;42.628;23.380;2022-10-13T07:35:27;43.83;;;25.10;;
6693;SDS011;3384;42.628;23.380;2022-10-13T07:37:54;40.27;;;23.40;;
6693;SDS011;3384;42.628;23.380;2022-10-13T07:40:21;34.80;;;21.30;;
6693;SDS011;3384;42.628;23.380;2022-10-13T07:42:49;52.60;;;25.47;;
6693;SDS011;3384;42.628;23.380;2022-10-13T07:45:16;59.37;;;21.27;;
6693;SDS011;3384;42.628;23.380;2022-10-13T07:47:42;56.07;;;26.30;;
6693;SDS011;3384;42.628;23.380;2022-10-13T07:50:09;58.47;;;26.23;;
6693;SDS011;3384;42.628;23.380;2022-10-13T07:52:36;39.53;;;22.77;;
6693;SDS011;3384;42.628;23.380;2022-10-13T07:55:03;49.63;;;22.97;;
6693;SDS011;3384;42.628;23.380;2022-10-13T07:57:30;44.27;;;23.10;;
6693;SDS011;3384;42.628;23.380;2022-10-13T07:59:59;40.67;;;22.27;;
6693;SDS011;3384;42.628;23.380;2022-10-13T08:02:26;40.83;;;20.97;;
6693;SDS011;3384;42.628;23.380;2022-10-13T08:04:54;40.07;;;24.67;;
6693;SDS011;3384;42.628;23.380;2022-10-13T08:07:20;41.23;;;23.17;;
6693;SDS011;3384;42.628;23.380;2022-10-13T08:09:47;32.80;;;21.73;;
6693;SDS011;3384;42.628;23.380;2022-10-13T08:12:14;31.77;;;22.60;;
6693;SDS011;3384;42.628;23.380;2022-10-13T08:14:41;52.63;;;30.43;;
6693;SDS011;3384;42.628;23.380;2022-10-13T08:17:09;50.10;;;23.20;;
6693;SDS011;3384;42.628;23.380;2022-10-13T08:19:36;45.40;;;23.07;;
6693;SDS011;3384;42.628;23.380;2022-10-13T08:22:02;35.20;;;21.70;;
6693;SDS011;3384;42.628;23.380;2022-10-13T08:24:29;27.27;;;19.70;;
6693;SDS011;3384;42.628;23.380;2022-10-13T08:26:56;33.13;;;18.87;;
6693;SDS011;3384;42.628;23.380;2022-10-13T08:29:23;31.17;;;19.57;;
6693;SDS011;3384;42.628;23.380;2022-10-13T08:31:50;34.03;;;19.67;;
6693;SDS011;3384;42.628;23.380;2022-10-13T08:34:19;27.07;;;20.27;;
6693;SDS011;3384;42.628;23.380;2022-10-13T08:36:46;28.70;;;19.80;;
6693;SDS011;3384;42.628;23.380;2022-10-13T08:39:16;35.80;;;19.43;;
6693;SDS011;3384;42.628;23.380;2022-10-13T08:41:43;33.20;;;19.13;;
6693;SDS011;3384;42.628;23.380;2022-10-13T08:44:11;31.23;;;20.40;;
6693;SDS011;3384;42.628;23.380;2022-10-13T08:46:47;31.13;;;19.50;;
6693;SDS011;3384;42.628;23.380;2022-10-13T08:49:20;35.83;;;20.17;;
6693;SDS011;3384;42.628;23.380;2022-10-13T08:51:47;27.60;;;17.93;;
6693;SDS011;3384;42.628;23.380;2022-10-13T08:54:14;29.93;;;18.80;;
6693;SDS011;3384;42.628;23.380;2022-10-13T08:56:44;28.90;;;17.87;;
6693;SDS011;3384;42.628;23.380;2022-10-13T08:59:15;29.70;;;18.17;;
6693;SDS011;3384;42.628;23.380;2022-10-13T09:01:43;23.10;;;17.00;;
6693;SDS011;3384;42.628;23.380;2022-10-13T09:04:16;30.33;;;18.90;;
6693;SDS011;3384;42.628;23.380;2022-10-13T09:06:53;30.17;;;18.77;;
6693;SDS011;3384;42.628;23.380;2022-10-13T09:09:23;27.13;;;18.57;;
6693;SDS011;3384;42.628;23.380;2022-10-13T09:11:50;34.83;;;20.30;;
6693;SDS011;3384;42.628;23.380;2022-10-13T09:14:21;55.20;;;19.30;;
6693;SDS011;3384;42.628;23.380;2022-10-13T09:16:51;27.67;;;18.60;;
6693;SDS011;3384;42.628;23.380;2022-10-13T09:19:21;31.00;;;17.27;;
6693;SDS011;3384;42.628;23.380;2022-10-13T09:21:52;22.17;;;16.63;;
6693;SDS011;3384;42.628;23.380;2022-10-13T09:24:21;26.50;;;17.10;;
6693;SDS011;3384;42.628;23.380;2022-10-13T09:26:51;27.00;;;15.70;;
6693;SDS011;3384;42.628;23.380;2022-10-13T09:29:29;31.20;;;17.33;;
6693;SDS011;3384;42.628;23.380;2022-10-13T09:32:06;24.93;;;16.70;;
6693;SDS011;3384;42.628;23.380;2022-10-13T09:34:38;21.43;;;15.57;;
6693;SDS011;3384;42.628;23.380;2022-10-13T09:37:15;22.17;;;16.47;;
6693;SDS011;3384;42.628;23.380;2022-10-13T09:39:44;20.83;;;14.20;;
6693;SDS011;3384;42.628;23.380;2022-10-13T09:42:21;30.87;;;14.67;;
6693;SDS011;3384;42.628;23.380;2022-10-13T09:44:57;24.43;;;14.43;;
6693;SDS011;3384;42.628;23.380;2022-10-13T09:47:25;23.90;;;14.10;;
6693;SDS011;3384;42.628;23.380;2022-10-13T09:49:58;21.63;;;14.57;;
6693;SDS011;3384;42.628;23.380;2022-10-13T09:52:29;26.20;;;14.40;;
6693;SDS011;3384;42.628;23.380;2022-10-13T09:54:56;14.87;;;12.33;;
6693;SDS011;3384;42.628;23.380;2022-10-13T09:57:30;18.60;;;12.63;;
6693;SDS011;3384;42.628;23.380;2022-10-13T10:00:06;16.60;;;12.37;;
6693;SDS011;3384;42.628;23.380;2022-10-13T10:02:40;16.57;;;12.57;;
6693;SDS011;3384;42.628;23.380;2022-10-13T10:05:17;16.07;;;12.73;;
6693;SDS011;3384;42.628;23.380;2022-10-13T10:07:50;15.37;;;12.30;;
6693;SDS011;3384;42.628;23.380;2022-10-13T10:10:23;18.83;;;11.03;;
6693;SDS011;3384;42.628;23.380;2022-10-13T10:12:55;27.50;;;12.50;;
6693;SDS011;3384;42.628;23.380;2022-10-13T10:15:23;20.47;;;12.67;;
6693;SDS011;3384;42.628;23.380;2022-10-13T10:17:56;22.50;;;13.37;;
6693;SDS011;3384;42.628;23.380;2022-10-13T10:23:18;16.73;;;11.10;;
6693;SDS011;3384;42.628;23.380;2022-10-13T10:25:53;17.03;;;11.07;;
6693;SDS011;3384;42.628;23.380;2022-10-13T10:28:30;14.50;;;10.60;;
6693;SDS011;3384;42.628;23.380;2022-10-13T10:31:25;21.53;;;10.80;;
6693;SDS011;3384;42.628;23.380;2022-10-13T10:34:06;13.27;;;11.40;;
6693;SDS011;3384;42.628;23.380;2022-10-13T10:36:52;12.87;;;10.60;;
6693;SDS011;3384;42.628;23.380;2022-10-13T10:39:35;21.53;;;11.07;;
6693;SDS011;3384;42.628;23.380;2022-10-13T10:42:08;12.50;;;11.23;;
6693;SDS011;3384;42.628;23.380;2022-10-13T10:44:45;22.37;;;10.97;;
6693;SDS011;3384;42.628;23.380;2022-10-13T10:47:18;12.07;;;10.90;;
6693;SDS011;3384;42.628;23.380;2022-10-13T10:49:48;18.07;;;10.57;;
6693;SDS011;3384;42.628;23.380;2022-10-13T10:52:19;19.00;;;13.83;;
6693;SDS011;3384;42.628;23.380;2022-10-13T10:54:54;17.63;;;10.60;;
6693;SDS011;3384;42.628;23.380;2022-10-13T10:57:33;18.53;;;11.60;;
6693;SDS011;3384;42.628;23.380;2022-10-13T11:00:08;32.90;;;9.77;;
6693;SDS011;3384;42.628;23.380;2022-10-13T11:02:42;15.53;;;11.00;;
6693;SDS011;3384;42.628;23.380;2022-10-13T11:05:18;14.90;;;11.70;;
6693;SDS011;3384;42.628;23.380;2022-10-13T11:10:29;14.23;;;10.77;;
6693;SDS011;3384;42.628;23.380;2022-10-13T11:13:09;18.90;;;10.17;;
6693;SDS011;3384;42.628;23.380;2022-10-13T11:15:46;19.90;;;10.23;;
6693;SDS011;3384;42.628;23.380;2022-10-13T11:21:15;17.37;;;10.63;;
6693;SDS011;3384;42.628;23.380;2022-10-13T11:23:43;16.47;;;10.60;;
6693;SDS011;3384;42.628;23.380;2022-10-13T11:29:16;10.93;;;9.67;;
6693;SDS011;3384;42.628;23.380;2022-10-13T11:31:49;13.90;;;8.60;;
6693;SDS011;3384;42.628;23.380;2022-10-13T11:34:25;20.03;;;8.90;;
6693;SDS011;3384;42.628;23.380;2022-10-13T11:36:54;17.60;;;9.07;;
6693;SDS011;3384;42.628;23.380;2022-10-13T11:48:37;8.70;;;8.00;;
6693;SDS011;3384;42.628;23.380;2022-10-13T11:51:16;21.17;;;8.13;;
6693;SDS011;3384;42.628;23.380;2022-10-13T11:53:56;9.47;;;7.90;;
6693;SDS011;3384;42.628;23.380;2022-10-13T11:56:32;18.53;;;8.07;;
6693;SDS011;3384;42.628;23.380;2022-10-13T11:59:03;7.17;;;6.53;;
6693;SDS011;3384;42.628;23.380;2022-10-13T12:01:31;20.63;;;7.93;;
6693;SDS011;3384;42.628;23.380;2022-10-13T12:03:58;8.20;;;7.40;;
6693;SDS011;3384;42.628;23.380;2022-10-13T12:06:39;10.70;;;9.43;;
6693;SDS011;3384;42.628;23.380;2022-10-13T12:09:13;11.40;;;8.20;;
6693;SDS011;3384;42.628;23.380;2022-10-13T12:11:43;13.93;;;7.60;;
6693;SDS011;3384;42.628;23.380;2022-10-13T12:14:17;12.00;;;8.87;;
6693;SDS011;3384;42.628;23.380;2022-10-13T12:16:53;11.77;;;8.50;;
6693;SDS011;3384;42.628;23.380;2022-10-13T12:19:22;7.87;;;7.10;;
6693;SDS011;3384;42.628;23.380;2022-10-13T12:21:51;10.30;;;7.97;;
6693;SDS011;3384;42.628;23.380;2022-10-13T12:24:20;11.30;;;8.10;;
6693;SDS011;3384;42.628;23.380;2022-10-13T12:26:49;10.53;;;7.90;;
6693;SDS011;3384;42.628;23.380;2022-10-13T12:29:16;9.20;;;7.77;;
6693;SDS011;3384;42.628;23.380;2022-10-13T12:31:45;9.30;;;8.57;;
6693;SDS011;3384;42.628;23.380;2022-10-13T12:34:19;11.73;;;10.10;;
6693;SDS011;3384;42.628;23.380;2022-10-13T12:36:57;13.70;;;10.53;;
6693;SDS011;3384;42.628;23.380;2022-10-13T12:39:26;18.53;;;10.90;;
6693;SDS011;3384;42.628;23.380;2022-10-13T12:41:56;34.07;;;10.37;;
6693;SDS011;3384;42.628;23.380;2022-10-13T12:44:24;17.23;;;10.03;;
6693;SDS011;3384;42.628;23.380;2022-10-13T12:46:54;20.27;;;10.80;;
6693;SDS011;3384;42.628;23.380;2022-10-13T12:49:25;10.43;;;9.33;;
6693;SDS011;3384;42.628;23.380;2022-10-13T12:51:55;11.23;;;8.73;;
6693;SDS011;3384;42.628;23.380;2022-10-13T12:54:29;21.63;;;10.50;;
6693;SDS011;3384;42.628;23.380;2022-10-13T12:56:59;12.77;;;9.37;;
6693;SDS011;3384;42.628;23.380;2022-10-13T12:59:29;18.70;;;8.93;;
6693;SDS011;3384;42.628;23.380;2022-10-13T13:01:58;13.80;;;8.70;;
6693;SDS011;3384;42.628;23.380;2022-10-13T13:04:29;26.83;;;9.80;;
6693;SDS011;3384;42.628;23.380;2022-10-13T13:07:21;21.23;;;9.17;;
6693;SDS011;3384;42.628;23.380;2022-10-13T13:10:00;10.07;;;8.10;;
6693;SDS011;3384;42.628;23.380;2022-10-13T13:12:29;16.40;;;8.50;;
6693;SDS011;3384;42.628;23.380;2022-10-13T13:14:56;9.97;;;8.97;;
6693;SDS011;3384;42.628;23.380;2022-10-13T13:17:24;11.17;;;8.80;;
6693;SDS011;3384;42.628;23.380;2022-10-13T13:19:55;10.13;;;8.50;;
6693;SDS011;3384;42.628;23.380;2022-10-13T13:22:22;12.50;;;8.53;;
6693;SDS011;3384;42.628;23.380;2022-10-13T13:24:50;10.97;;;8.50;;
6693;SDS011;3384;42.628;23.380;2022-10-13T13:27:18;7.83;;;6.30;;
6693;SDS011;3384;42.628;23.380;2022-10-13T13:29:49;11.20;;;8.33;;
6693;SDS011;3384;42.628;23.380;2022-10-13T13:32:17;24.17;;;8.37;;
6693;SDS011;3384;42.628;23.380;2022-10-13T13:34:45;9.60;;;7.83;;
6693;SDS011;3384;42.628;23.380;2022-10-13T13:37:14;15.43;;;8.83;;
6693;SDS011;3384;42.628;23.380;2022-10-13T13:39:48;8.80;;;7.90;;
6693;SDS011;3384;42.628;23.380;2022-10-13T13:42:14;11.30;;;7.70;;
6693;SDS011;3384;42.628;23.380;2022-10-13T13:44:41;15.53;;;7.40;;
6693;SDS011;3384;42.628;23.380;2022-10-13T13:47:18;21.70;;;7.30;;
6693;SDS011;3384;42.628;23.380;2022-10-13T13:49:46;10.13;;;7.77;;
6693;SDS011;3384;42.628;23.380;2022-10-13T13:52:15;8.33;;;7.53;;
6693;SDS011;3384;42.628;23.380;2022-10-13T13:54:42;8.90;;;8.10;;
6693;SDS011;3384;42.628;23.380;2022-10-13T13:57:09;10.50;;;7.40;;
6693;SDS011;3384;42.628;23.380;2022-10-13T13:59:36;8.67;;;6.43;;
6693;SDS011;3384;42.628;23.380;2022-10-13T14:02:04;27.33;;;8.00;;
6693;SDS011;3384;42.628;23.380;2022-10-13T14:04:32;7.43;;;6.30;;
6693;SDS011;3384;42.628;23.380;2022-10-13T14:06:59;7.53;;;6.87;;
6693;SDS011;3384;42.628;23.380;2022-10-13T14:09:27;14.63;;;6.67;;
6693;SDS011;3384;42.628;23.380;2022-10-13T14:11:55;15.07;;;7.20;;
6693;SDS011;3384;42.628;23.380;2022-10-13T14:14:21;12.27;;;7.20;;
6693;SDS011;3384;42.628;23.380;2022-10-13T14:16:48;12.20;;;7.07;;
6693;SDS011;3384;42.628;23.380;2022-10-13T14:19:15;6.37;;;6.03;;
6693;SDS011;3384;42.628;23.380;2022-10-13T14:21:42;14.40;;;7.87;;
6693;SDS011;3384;42.628;23.380;2022-10-13T14:24:10;7.97;;;6.50;;
6693;SDS011;3384;42.628;23.380;2022-10-13T14:26:38;11.13;;;7.03;;
6693;SDS011;3384;42.628;23.380;2022-10-13T14:29:05;10.20;;;7.10;;
6693;SDS011;3384;42.628;23.380;2022-10-13T14:31:32;8.63;;;7.83;;
6693;SDS011;3384;42.628;23.380;2022-10-13T14:33:59;16.10;;;8.10;;
6693;SDS011;3384;42.628;23.380;2022-10-13T14:36:26;11.60;;;6.77;;
6693;SDS011;3384;42.628;23.380;2022-10-13T14:38:53;7.67;;;6.90;;
6693;SDS011;3384;42.628;23.380;2022-10-13T14:41:20;9.73;;;7.70;;
6693;SDS011;3384;42.628;23.380;2022-10-13T14:43:51;7.60;;;6.83;;
6693;SDS011;3384;42.628;23.380;2022-10-13T14:46:19;15.17;;;7.63;;
6693;SDS011;3384;42.628;23.380;2022-10-13T14:48:50;9.20;;;6.50;;
6693;SDS011;3384;42.628;23.380;2022-10-13T14:51:16;6.60;;;6.10;;
6693;SDS011;3384;42.628;23.380;2022-10-13T14:53:43;10.90;;;7.03;;
6693;SDS011;3384;42.628;23.380;2022-10-13T14:56:15;18.80;;;7.27;;
6693;SDS011;3384;42.628;23.380;2022-10-13T14:58:44;7.80;;;6.93;;
6693;SDS011;3384;42.628;23.380;2022-10-13T15:01:12;7.50;;;6.50;;
6693;SDS011;3384;42.628;23.380;2022-10-13T15:03:39;8.70;;;6.83;;
6693;SDS011;3384;42.628;23.380;2022-10-13T15:06:06;8.33;;;7.00;;
6693;SDS011;3384;42.628;23.380;2022-10-13T15:08:38;27.73;;;8.57;;
6693;SDS011;3384;42.628;23.380;2022-10-13T15:11:04;16.33;;;7.80;;
6693;SDS011;3384;42.628;23.380;2022-10-13T15:13:31;16.43;;;6.63;;
6693;SDS011;3384;42.628;23.380;2022-10-13T15:15:58;6.87;;;6.17;;
6693;SDS011;3384;42.628;23.380;2022-10-13T15:18:27;10.27;;;6.03;;
6693;SDS011;3384;42.628;23.380;2022-10-13T15:20:54;11.60;;;6.27;;
6693;SDS011;3384;42.628;23.380;2022-10-13T15:23:22;7.90;;;6.50;;
6693;SDS011;3384;42.628;23.380;2022-10-13T15:25:49;15.60;;;6.50;;
6693;SDS011;3384;42.628;23.380;2022-10-13T15:28:16;16.23;;;7.70;;